Time;durP1;ratioP1;P1;durP2;ratioP2;P2;SDS_P1;SDS_P2;PMS_P1;PMS_P2;Temp;Humidity;BMP_temperature;BMP_pressure;BME280_temperature;BME280_humidity;BME280_pressure;Samples;Min_cycle;Max_cycle;Signal;HPM_P1;HPM_P2
2022/12/06 00:01:18;;;;;;;;;31.75;29.50;;;;;12.48;85.64;101777.31;146604;617;47010;-77
2022/12/06 00:04:17;;;;;;;;;24.00;18.50;;;;;12.45;85.91;101771.03;146605;615;45918;-78
2022/12/06 00:07:11;;;;;;;;;12.25;11.50;;;;;12.39;85.54;101768.06;146609;584;46020;-77
2022/12/06 00:10:25;;;;;;;;;19.75;15.75;;;;;12.34;85.58;101773.00;146607;696;46013;-77
2022/12/06 00:13:19;;;;;;;;;21.50;18.75;;;;;12.29;85.72;101777.00;146607;598;46020;-76
2022/12/06 00:16:16;;;;;;;;;23.75;19.75;;;;;12.26;85.74;101776.81;146604;641;46016;-77
2022/12/06 00:19:15;;;;;;;;;28.00;23.50;;;;;12.20;85.87;101769.53;146605;661;46021;-75
2022/12/06 00:22:18;;;;;;;;;24.75;19.00;;;;;12.17;85.70;101766.75;146602;670;47012;-76
2022/12/06 00:25:22;;;;;;;;;25.25;21.25;;;;;12.14;85.70;101769.16;146607;567;46032;-76
2022/12/06 00:28:25;;;;;;;;;19.75;15.50;;;;;12.11;85.55;101768.09;146602;569;46016;-76
2022/12/06 00:31:29;;;;;;;;;7.00;7.00;;;;;12.04;85.17;101766.81;146614;701;47010;-76
2022/12/06 00:34:25;;;;;;;;;8.25;6.00;;;;;11.99;85.19;101755.22;146608;600;47915;-76
2022/12/06 00:37:36;;;;;;;;;46.00;32.75;;;;;11.96;85.80;101750.75;146607;569;46020;-74
2022/12/06 00:40:39;;;;;;;;;28.25;22.50;;;;;11.95;85.87;101766.25;146605;649;46016;-74
2022/12/06 00:43:46;;;;;;;;;4.00;4.00;;;;;11.92;85.81;101755.66;146613;563;46020;-75
2022/12/06 00:47:04;;;;;;;;;;;;;;;;;;;;;
2022/12/06 00:50:00;;;;;;;;;22.25;14.50;;;;;11.97;85.83;101759.44;146609;575;46010;-73
2022/12/06 00:52:57;;;;;;;;;30.75;25.75;;;;;12.01;86.04;101761.41;146608;612;45915;-74
2022/12/06 00:55:58;;;;;;;;;35.00;29.50;;;;;12.09;85.89;101755.00;146610;569;45021;-74
2022/12/06 00:58:54;;;;;;;;;27.75;23.75;;;;;12.14;86.24;101761.38;146609;581;45016;-76
2022/12/06 01:01:57;;;;;;;;;20.50;16.00;;;;;12.21;85.70;101765.22;146608;616;46010;-75
2022/12/06 01:04:50;;;;;;;;;22.25;16.75;;;;;12.25;85.60;101765.53;146605;590;46019;-75
2022/12/06 01:07:42;;;;;;;;;16.25;15.50;;;;;12.31;85.90;101767.62;146607;571;47013;-75
2022/12/06 01:10:56;;;;;;;;;17.25;14.50;;;;;12.35;85.68;101761.78;146613;564;45922;-74
2022/12/06 01:13:52;;;;;;;;;23.25;21.00;;;;;12.36;85.54;101762.69;146612;593;47010;-75
2022/12/06 01:16:47;;;;;;;;;16.00;14.25;;;;;12.35;85.25;101761.78;146611;571;47012;-76
2022/12/06 01:19:39;;;;;;;;;14.00;13.75;;;;;12.34;85.54;101762.59;146614;563;46020;-76
2022/12/06 01:22:35;;;;;;;;;16.75;14.50;;;;;12.33;85.40;101757.28;146607;562;46025;-75
2022/12/06 01:25:29;;;;;;;;;12.50;12.25;;;;;12.32;85.83;101752.91;146613;576;47012;-76
2022/12/06 01:28:24;;;;;;;;;18.75;16.25;;;;;12.27;85.56;101747.41;146611;624;46012;-76
2022/12/06 01:31:18;;;;;;;;;18.00;13.25;;;;;12.25;86.08;101756.84;146615;620;46021;-76
2022/12/06 01:34:16;;;;;;;;;16.50;14.00;;;;;12.24;86.12;101747.22;146607;595;46016;-76
2022/12/06 01:37:12;;;;;;;;;15.50;12.00;;;;;12.24;86.30;101755.03;146614;613;46020;-75
2022/12/06 01:40:06;;;;;;;;;14.50;11.50;;;;;12.24;85.97;101747.22;146610;576;47012;-74
2022/12/06 01:43:03;;;;;;;;;13.25;10.25;;;;;12.23;86.47;101735.03;146615;719;46020;-75
2022/12/06 01:46:49;;;;;;;;;12.50;10.75;;;;;9.60;85.79;101281.84;146607;581;46017;-74
2022/12/06 01:49:49;;;;;;;;;10.75;9.75;;;;;12.24;86.21;101734.22;146619;604;45022;-75
2022/12/06 01:53:14;;;;;;;;;10.50;9.50;;;;;12.23;86.50;101724.63;146613;638;46014;-75
2022/12/06 01:56:24;;;;;;;;;12.00;11.25;;;;;9.62;86.13;101266.41;146619;624;45022;-73
2022/12/06 01:59:22;;;;;;;;;15.50;14.50;;;;;12.31;86.54;101727.72;146614;612;47012;-73
2022/12/06 02:02:23;;;;;;;;;14.00;11.25;;;;;12.36;86.80;101724.56;146618;564;46020;-74
2022/12/06 02:05:19;;;;;;;;;15.00;12.75;;;;;12.40;86.59;101723.06;146613;584;47012;-73
2022/12/06 02:08:30;;;;;;;;;13.25;12.25;;;;;12.46;86.21;101720.78;146612;581;46021;-73
2022/12/06 02:11:25;;;;;;;;;13.75;13.75;;;;;12.48;86.66;101721.78;146607;585;46012;-73
2022/12/06 02:14:27;;;;;;;;;14.25;13.75;;;;;12.51;86.28;101714.16;146609;645;46010;-72
2022/12/06 02:17:55;;;;;;;;;15.25;14.00;;;;;12.51;86.33;101716.78;146603;588;47036;-76
2022/12/06 02:21:34;;;;;;;;;13.75;12.50;;;;;9.78;85.85;101232.94;146606;591;47012;-76
2022/12/06 02:25:13;;;;;;;;;11.75;9.00;;;;;12.48;85.97;101712.28;146607;647;46012;-75
2022/12/06 02:29:03;;;;;;;;;9.25;9.25;;;;;9.64;85.63;101208.75;146613;709;46020;-76
2022/12/06 02:32:33;;;;;;;;;12.00;10.50;;;;;12.47;86.02;101710.50;146609;578;46016;-74
2022/12/06 02:36:30;;;;;;;;;11.00;10.25;;;;;9.70;85.39;101222.06;146608;569;47012;-74
2022/12/06 02:40:03;;;;;;;;;10.00;9.00;;;;;9.80;85.53;101241.66;146606;571;46014;-73
2022/12/06 02:43:26;;;;;;;;;9.50;8.50;;;;;9.66;86.05;101211.44;146608;644;47010;-73
2022/12/06 02:46:28;;;;;;;;;9.75;8.50;;;;;12.44;86.56;101693.81;146613;588;46016;-73
2022/12/06 02:49:44;;;;;;;;;12.00;11.25;;;;;12.46;86.52;101692.19;146605;573;47010;-74
2022/12/06 02:53:06;;;;;;;;;11.50;11.50;;;;;12.46;86.24;101697.38;146605;652;47013;-74
2022/12/06 02:56:14;;;;;;;;;;;;;;;;;;;;;
2022/12/06 02:59:09;;;;;;;;;18.25;16.00;;;;;12.48;86.32;101698.37;146604;645;46017;-75
2022/12/06 03:02:14;;;;;;;;;14.50;13.50;;;;;12.48;86.69;101696.66;146606;596;46020;-76
2022/12/06 03:05:35;;;;;;;;;14.50;13.50;;;;;12.52;86.59;101694.25;146604;572;46016;-75
2022/12/06 03:09:06;;;;;;;;;13.25;13.25;;;;;12.50;86.40;101691.56;146609;697;46020;-76
2022/12/06 03:12:37;;;;;;;;;14.75;12.75;;;;;12.50;86.75;101686.38;146603;564;46915;-75
2022/12/06 03:16:14;;;;;;;;;14.50;12.50;;;;;9.66;86.36;101194.22;146608;616;46020;-74
2022/12/06 03:19:30;;;;;;;;;13.75;13.25;;;;;12.47;87.12;101691.41;146606;598;46033;-76
2022/12/06 03:22:49;;;;;;;;;14.75;13.75;;;;;12.44;86.94;101689.50;146607;581;46020;-72
2022/12/06 03:26:04;;;;;;;;;16.25;14.50;;;;;12.43;87.11;101692.03;146605;619;47012;-72
2022/12/06 03:29:04;;;;;;;;;17.00;16.50;;;;;12.42;87.17;101695.41;146609;610;46010;-76
2022/12/06 03:32:15;;;;;;;;;18.25;16.00;;;;;12.43;87.05;101690.31;146601;669;46038;-76
2022/12/06 03:35:21;;;;;;;;;20.50;17.50;;;;;12.43;87.59;101685.13;146605;581;46020;-76
2022/12/06 03:38:31;;;;;;;;;;;;;;;;;;;;;
2022/12/06 03:41:49;;;;;;;;;17.50;16.00;;;;;12.38;87.53;101681.34;146608;610;46020;-77
2022/12/06 03:44:41;;;;;;;;;14.00;14.00;;;;;12.40;87.86;101684.03;146605;571;46016;-76
2022/12/06 03:48:14;;;;;;;;;16.50;13.75;;;;;12.39;87.27;101682.22;146604;589;47010;-76
2022/12/06 03:51:17;;;;;;;;;15.00;12.50;;;;;12.43;88.17;101690.31;146605;600;46915;-76
2022/12/06 03:54:16;;;;;;;;;16.75;14.00;;;;;12.42;87.89;101683.31;146604;595;46020;-77
2022/12/06 03:57:13;;;;;;;;;15.25;12.50;;;;;12.43;88.14;101681.63;146608;611;46012;-77
2022/12/06 04:00:10;;;;;;;;;16.25;14.50;;;;;12.43;88.07;101674.72;146608;569;46030;-77
2022/12/06 04:03:02;;;;;;;;;15.00;12.25;;;;;12.43;87.86;101677.31;146603;571;46016;-77
2022/12/06 04:06:05;;;;;;;;;18.25;16.50;;;;;12.43;88.09;101679.91;146607;630;46011;-77
2022/12/06 04:15:40;;;;;;;;;13.50;12.50;;;;;12.47;87.94;101673.19;146612;579;46016;-73
2022/12/06 04:18:45;;;;;;;;;17.00;14.50;;;;;12.46;88.03;101663.56;146615;632;46020;-73
2022/12/06 04:25:06;;;;;;;;;17.75;15.50;;;;;12.38;87.60;101668.34;146611;577;47012;-75
2022/12/06 04:44:55;;;;;;;;;11.50;10.75;;;;;12.34;88.22;101670.69;146615;581;47008;-75
2022/12/06 04:47:47;;;;;;;;;14.25;12.75;;;;;12.35;88.02;101681.16;146610;571;46016;-74
2022/12/06 04:50:45;;;;;;;;;12.25;10.25;;;;;12.36;88.33;101682.94;146616;576;46021;-74
2022/12/06 04:53:42;;;;;;;;;16.00;11.75;;;;;12.38;88.28;101683.94;146611;703;46016;-75
2022/12/06 04:56:40;;;;;;;;;17.25;13.50;;;;;12.36;88.41;101682.94;146616;657;47010;-76
2022/12/06 04:59:36;;;;;;;;;12.50;12.00;;;;;12.34;88.21;101681.09;146614;574;46012;-77
2022/12/06 05:02:32;;;;;;;;;12.75;12.75;;;;;12.33;88.46;101692.28;146617;582;46020;-77
2022/12/06 05:05:31;;;;;;;;;15.50;13.50;;;;;12.31;88.36;101696.50;146612;609;46017;-77
2022/12/06 05:08:29;;;;;;;;;13.50;12.75;;;;;12.30;88.12;101684.28;146615;620;46010;-74
2022/12/06 05:11:24;;;;;;;;;16.00;14.00;;;;;12.30;88.64;101686.88;146604;627;46016;-76
2022/12/06 05:14:22;;;;;;;;;17.25;13.50;;;;;12.30;88.50;101695.56;146611;577;46020;-78
2022/12/06 05:17:23;;;;;;;;;14.00;12.75;;;;;12.29;88.58;101699.00;146606;573;46021;-78
2022/12/06 05:20:22;;;;;;;;;12.75;10.75;;;;;12.30;88.72;101695.56;146608;569;47011;-79
2022/12/06 05:23:23;;;;;;;;;14.00;12.00;;;;;12.32;88.54;101695.69;146605;620;47012;-80
2022/12/06 05:26:40;;;;;;;;;16.00;14.25;;;;;12.34;88.47;101689.78;146603;591;46023;-78
2022/12/06 05:29:42;;;;;;;;;17.00;14.50;;;;;12.36;88.57;101693.34;146606;577;47012;-78
2022/12/06 05:32:35;;;;;;;;;17.75;14.25;;;;;12.37;89.00;101692.56;146607;624;46020;-79
2022/12/06 05:35:32;;;;;;;;;15.50;13.50;;;;;12.39;88.83;101695.22;146603;687;46017;-78
2022/12/06 05:38:33;;;;;;;;;15.25;12.25;;;;;12.41;88.53;101691.91;146606;563;47010;-79
2022/12/06 05:41:31;;;;;;;;;16.00;14.00;;;;;12.43;88.65;101692.91;146603;615;46016;-79
2022/12/06 05:44:26;;;;;;;;;14.00;12.25;;;;;12.44;88.78;101699.91;146610;622;46020;-80
2022/12/06 05:47:48;;;;;;;;;20.75;16.00;;;;;10.23;88.13;101300.44;146602;668;46016;-79
2022/12/06 05:50:55;;;;;;;;;17.50;15.25;;;;;12.48;88.18;101699.28;146608;576;46021;-75
2022/12/06 05:54:05;;;;;;;;;19.25;15.50;;;;;12.46;88.23;101698.31;146605;563;47012;-76
2022/12/06 05:57:07;;;;;;;;;15.75;14.00;;;;;12.44;88.50;101693.81;146605;643;46021;-76
2022/12/06 06:00:00;;;;;;;;;18.50;14.00;;;;;12.42;88.61;101687.63;146604;595;46915;-77
2022/12/06 06:02:56;;;;;;;;;15.00;13.75;;;;;12.42;88.56;101696.31;146608;592;45020;-76
2022/12/06 06:06:02;;;;;;;;;17.50;15.00;;;;;12.40;88.79;101695.34;146602;594;47012;-76
2022/12/06 06:08:59;;;;;;;;;14.00;13.50;;;;;12.43;88.74;101697.22;146606;630;46020;-77
2022/12/06 06:11:58;;;;;;;;;15.25;12.50;;;;;12.46;88.82;101700.91;146603;586;46034;-77
2022/12/06 06:15:03;;;;;;;;;18.75;14.75;;;;;12.46;89.20;101697.38;146607;605;46010;-76
2022/12/06 06:18:19;;;;;;;;;16.25;14.25;;;;;9.74;88.37;101222.25;146604;630;46016;-76
2022/12/06 06:21:32;;;;;;;;;17.75;16.00;;;;;9.66;88.46;101206.25;146607;554;46010;-76
2022/12/06 06:24:30;;;;;;;;;16.75;14.00;;;;;12.53;89.33;101704.75;146605;761;46012;-79
2022/12/06 06:27:22;;;;;;;;;16.25;16.25;;;;;12.57;89.50;101705.84;146608;566;46010;-75
2022/12/06 06:30:24;;;;;;;;;18.00;16.50;;;;;12.55;89.20;101686.63;146604;710;47014;-76
2022/12/06 06:33:27;;;;;;;;;15.00;13.25;;;;;12.69;89.29;101697.03;146607;612;46011;-76
2022/12/06 06:36:40;;;;;;;;;21.25;18.00;;;;;12.75;89.47;101698.22;146605;575;46016;-76
2022/12/06 06:39:40;;;;;;;;;16.75;16.00;;;;;12.82;89.30;101692.53;146604;619;47010;-79
2022/12/06 06:42:49;;;;;;;;;20.00;16.50;;;;;12.96;89.40;101699.44;146605;615;46016;-79
2022/12/06 06:45:41;;;;;;;;;25.00;19.75;;;;;13.10;89.81;101705.44;146606;606;47012;-78
2022/12/06 06:48:40;;;;;;;;;22.25;19.00;;;;;13.35;91.11;101708.63;146605;589;46023;-77
2022/12/06 06:51:49;;;;;;;;;32.00;27.50;;;;;13.67;89.87;101700.78;146605;588;47012;-72
2022/12/06 06:54:41;;;;;;;;;26.00;23.50;;;;;13.95;87.81;101709.25;146603;702;47012;-70
2022/12/06 06:57:41;;;;;;;;;21.00;18.50;;;;;14.18;85.62;101705.28;146607;570;46010;-72
2022/12/06 07:00:38;;;;;;;;;25.25;20.00;;;;;14.52;87.40;101715.78;146606;573;46016;-72
2022/12/06 07:03:38;;;;;;;;;20.00;16.75;;;;;15.15;85.02;101710.16;146605;675;46020;-72
2022/12/06 07:06:31;;;;;;;;;32.00;26.50;;;;;15.44;80.37;101704.59;146603;738;47012;-70
2022/12/06 07:09:23;;;;;;;;;27.25;26.00;;;;;15.53;79.90;101706.75;146606;594;46020;-76
2022/12/06 07:12:20;;;;;;;;;28.00;26.75;;;;;15.74;80.77;101706.00;146602;630;46017;-76
2022/12/06 07:15:18;;;;;;;;;32.50;27.75;;;;;16.23;79.12;101698.63;146606;604;47012;-76
2022/12/06 07:18:19;;;;;;;;;24.25;21.50;;;;;16.84;78.89;101702.97;146605;599;46016;-76
2022/12/06 07:21:26;;;;;;;;;21.75;21.00;;;;;17.55;73.13;101698.81;146604;612;47021;-75
2022/12/06 07:24:18;;;;;;;;;20.50;18.25;;;;;17.98;69.88;101696.09;146603;574;46016;-75
2022/12/06 07:27:18;;;;;;;;;25.00;23.00;;;;;18.21;69.31;101698.66;146603;584;46021;-74
2022/12/06 07:30:18;;;;;;;;;24.75;23.25;;;;;18.19;68.21;101695.97;146604;582;46016;-74
2022/12/06 07:33:10;;;;;;;;;31.75;26.25;;;;;17.86;67.36;101697.38;146605;634;46020;-74
2022/12/06 07:36:05;;;;;;;;;28.25;27.00;;;;;17.45;69.31;101694.94;146604;583;46017;-73
2022/12/06 07:39:05;;;;;;;;;26.50;23.25;;;;;17.11;69.99;101702.31;146608;563;46020;-74
2022/12/06 07:45:18;;;;;;;;;25.25;18.75;;;;;16.52;72.71;101707.72;146605;614;46020;-73
2022/12/06 07:48:15;;;;;;;;;15.75;15.00;;;;;16.28;72.75;101704.03;146602;576;47014;-73
2022/12/06 07:51:13;;;;;;;;;26.25;23.50;;;;;16.04;73.92;101711.69;146605;641;46020;-74
2022/12/06 07:54:10;;;;;;;;;26.50;20.75;;;;;15.79;74.60;101709.69;146605;607;47012;-76
2022/12/06 07:57:13;;;;;;;;;20.25;19.50;;;;;15.56;76.73;101714.72;146608;612;47011;-74
2022/12/06 08:00:20;;;;;;;;;22.00;21.25;;;;;15.47;78.30;101709.06;146602;614;47014;-75
2022/12/06 08:03:18;;;;;;;;;23.00;21.50;;;;;15.42;77.52;101703.63;146606;613;46020;-75
2022/12/06 08:06:20;;;;;;;;;18.50;15.25;;;;;15.39;78.34;101711.34;146604;628;46016;-74
2022/12/06 08:09:24;;;;;;;;;21.25;16.25;;;;;15.43;78.37;101718.50;146613;602;46010;-73
2022/12/06 08:12:27;;;;;;;;;20.50;15.50;;;;;15.49;78.46;101717.87;146611;581;46016;-74
2022/12/06 08:15:33;;;;;;;;;16.50;13.50;;;;;15.54;78.17;101715.47;146615;579;46020;-74
2022/12/06 08:18:33;;;;;;;;;17.25;16.25;;;;;15.63;77.48;101711.56;146608;573;47012;-74
2022/12/06 08:21:32;;;;;;;;;16.75;15.75;;;;;15.66;77.59;101709.09;146614;612;46020;-73
2022/12/06 08:24:26;;;;;;;;;19.50;16.00;;;;;15.69;77.37;101703.16;146612;680;46016;-74
2022/12/06 08:27:32;;;;;;;;;;;;;;;;;;;;;
2022/12/06 08:30:26;;;;;;;;;16.00;13.50;;;;;15.98;76.73;101704.50;146613;586;46012;-75
2022/12/06 08:33:27;;;;;;;;;13.00;12.67;;;;;16.25;74.11;101703.91;146612;630;46021;-75
2022/12/06 08:36:31;;;;;;;;;13.50;11.75;;;;;16.51;74.13;101707.63;146612;584;46027;-74
2022/12/06 08:39:37;;;;;;;;;11.75;10.00;;;;;16.51;73.23;101669.28;146613;704;46021;-74
2022/12/06 08:42:35;;;;;;;;;12.50;9.75;;;;;16.76;72.02;101691.28;146610;648;47012;-75
2022/12/06 08:45:35;;;;;;;;;13.00;11.00;;;;;16.87;71.16;101686.50;146615;616;46010;-74
2022/12/06 08:48:31;;;;;;;;;9.00;7.00;;;;;17.02;70.70;101693.25;146611;595;47014;-75
2022/12/06 08:51:37;;;;;;;;;7.33;7.33;;;;;17.17;71.15;101689.47;146617;628;46010;-74
2022/12/06 08:54:33;;;;;;;;;9.00;7.00;;;;;17.37;70.99;101678.00;146614;569;46012;-74
2022/12/06 08:57:34;;;;;;;;;9.33;7.33;;;;;17.67;71.85;101677.41;146614;600;45020;-75
2022/12/06 09:00:27;;;;;;;;;7.67;7.67;;;;;18.00;71.64;101668.16;146609;658;47915;-74
2022/12/06 09:03:34;;;;;;;;;10.67;9.67;;;;;18.38;69.78;101662.47;146617;566;46030;-77
2022/12/06 09:06:33;;;;;;;;;10.67;9.67;;;;;18.67;65.99;101655.59;146611;583;47012;-77
2022/12/06 09:10:05;;;;;;;;;6.75;6.00;;;;;18.73;63.21;101655.81;146704;564;45022;-74
2022/12/06 09:13:01;;;;;;;;;9.33;7.33;;;;;18.69;63.94;101662.69;146621;564;46014;-78
2022/12/06 09:15:53;;;;;;;;;9.50;8.00;;;;;18.67;64.86;101650.34;146618;677;46021;-78
2022/12/06 09:18:53;;;;;;;;;7.33;7.00;;;;;18.74;64.66;101649.72;146613;656;46014;-77
2022/12/06 09:21:46;;;;;;;;;6.33;5.67;;;;;17.63;64.62;101428.97;146617;597;46020;-78
2022/12/06 09:24:41;;;;;;;;;7.50;6.00;;;;;18.87;65.36;101638.75;146613;577;46918;-77
2022/12/06 09:27:36;;;;;;;;;5.33;4.00;;;;;18.93;63.21;101635.44;146620;565;46010;-78
2022/12/06 09:30:34;;;;;;;;;4.67;4.67;;;;;18.90;65.05;101630.97;146612;612;46016;-77
2022/12/06 09:33:29;;;;;;;;;3.33;3.00;;;;;18.90;65.48;101627.44;146618;642;46010;-77
2022/12/06 09:36:32;;;;;;;;;7.00;5.00;;;;;18.96;64.58;101625.03;146615;615;46016;-77
2022/12/06 09:39:49;;;;;;;;;8.33;5.00;;;;;19.04;65.79;101612.13;146617;581;46021;-78
2022/12/06 09:43:36;;;;;;;;;5.67;5.00;;;;;19.05;66.12;101595.50;146617;580;45917;-78
2022/12/06 09:47:18;;;;;;;;;2.00;2.00;;;;;19.11;66.20;101609.72;146621;564;45021;-77
2022/12/06 09:50:48;;;;;;;;;3.50;3.50;;;;;19.13;66.79;101607.16;146615;671;47012;-79
2022/12/06 09:54:49;;;;;;;;;5.67;5.00;;;;;19.05;66.54;101571.84;146620;586;46021;-78
2022/12/06 09:58:09;;;;;;;;;2.33;2.33;;;;;19.15;66.42;101584.41;146615;584;45917;-77
2022/12/06 10:01:35;;;;;;;;;3.00;2.00;;;;;19.02;65.61;101575.28;146620;603;46010;-77
2022/12/06 10:05:21;;;;;;;;;5.75;4.75;;;;;18.77;66.33;101568.38;146615;642;46016;-78
2022/12/06 10:08:53;;;;;;;;;2.00;2.00;;;;;18.52;68.26;101545.66;146620;608;46021;-76
2022/12/06 10:12:21;;;;;;;;;7.00;6.75;;;;;18.51;67.15;101556.13;146643;570;45016;-76
2022/12/06 10:16:05;;;;;;;;;8.75;6.25;;;;;18.33;69.21;101535.41;146650;585;44023;-75
2022/12/06 10:19:28;;;;;;;;;3.33;3.33;;;;;18.33;67.53;101541.56;146646;579;45034;-76
2022/12/06 10:22:48;;;;;;;;;1.00;1.00;;;;;18.23;64.46;101542.09;146647;566;45011;-75
2022/12/06 10:26:35;;;;;;;;;2.00;1.67;;;;;18.02;65.46;101521.28;146643;645;45016;-76
2022/12/06 10:29:57;;;;;;;;;5.33;4.00;;;;;18.00;66.63;101522.94;146646;577;45021;-76
2022/12/06 10:33:34;;;;;;;;;1.67;1.00;;;;;18.04;68.22;101513.44;146639;569;46014;-76
2022/12/06 10:37:13;;;;;;;;;1.67;1.67;;;;;18.26;67.22;101518.56;146647;624;45010;-76
2022/12/06 10:40:45;;;;;;;;;3.33;1.33;;;;;18.26;63.58;101505.44;146641;580;46916;-76
2022/12/06 10:44:10;;;;;;;;;3.00;2.00;;;;;16.97;65.32;101264.22;146642;610;45020;-76
2022/12/06 10:47:17;;;;;;;;;4.33;4.33;;;;;18.52;64.58;101513.25;146637;629;45016;-78
2022/12/06 10:50:37;;;;;;;;;4.00;3.00;;;;;18.70;66.45;101498.06;146644;564;45010;-81
2022/12/06 10:53:35;;;;;;;;;4.00;4.00;;;;;18.74;63.99;101493.81;146644;641;45012;-78
2022/12/06 10:56:37;;;;;;;;;4.00;1.67;;;;;18.80;62.56;101497.53;146644;637;45010;-77
2022/12/06 10:59:53;;;;;;;;;1.33;1.33;;;;;18.78;64.37;101496.56;146643;617;45033;-78
2022/12/06 11:03:22;;;;;;;;;0.67;0.67;;;;;18.70;64.77;101491.06;146642;563;46010;-77
2022/12/06 11:06:52;;;;;;;;;2.00;2.00;;;;;18.63;64.65;101483.84;146637;599;45016;-77
2022/12/06 11:09:59;;;;;;;;;3.67;1.67;;;;;18.40;62.77;101480.50;146632;570;46012;-77
2022/12/06 11:13:29;;;;;;;;;1.33;1.33;;;;;18.07;63.82;101477.72;146611;574;46016;-77
2022/12/06 11:16:40;;;;;;;;;5.33;3.67;;;;;17.82;64.24;101480.34;146618;651;46010;-76
2022/12/06 11:19:55;;;;;;;;;8.75;8.00;;;;;17.63;67.95;101468.28;146614;582;46016;-76
2022/12/06 11:23:19;;;;;;;;;17.50;17.00;;;;;17.45;67.86;101469.47;146616;708;46021;-78
2022/12/06 11:26:49;;;;;;;;;13.25;13.00;;;;;17.26;69.45;101467.91;146608;658;46016;-79
2022/12/06 11:29:50;;;;;;;;;18.75;15.00;;;;;17.07;67.24;101453.25;146612;652;46020;-76
2022/12/06 11:32:49;;;;;;;;;27.75;26.75;;;;;17.04;69.39;101461.00;146608;569;46012;-78
2022/12/06 11:35:53;;;;;;;;;31.00;29.00;;;;;16.98;69.05;101462.53;146609;717;46013;-77
2022/12/06 11:38:49;;;;;;;;;18.75;18.00;;;;;16.90;69.36;101458.72;146606;656;46016;-77
2022/12/06 11:42:12;;;;;;;;;40.00;32.25;;;;;16.77;70.39;101452.12;146610;598;46020;-77
2022/12/06 11:45:25;;;;;;;;;33.50;30.50;;;;;16.73;71.28;101445.84;146606;618;46016;-77
2022/12/06 11:48:43;;;;;;;;;19.25;17.75;;;;;16.70;69.93;101447.44;146608;614;46020;-77
2022/12/06 11:51:40;;;;;;;;;21.00;18.50;;;;;16.67;69.72;101448.25;146607;576;46016;-78
2022/12/06 11:54:46;;;;;;;;;8.75;7.25;;;;;16.59;70.18;101441.81;146612;671;46010;-76
2022/12/06 11:58:12;;;;;;;;;;;;;;;;;;;;;
2022/12/06 12:01:18;;;;;;;;;13.50;12.00;;;;;16.45;69.65;101435.12;146612;635;46020;-76
2022/12/06 12:04:47;;;;;;;;;36.75;31.75;;;;;16.38;69.99;101434.00;146607;621;46016;-77
2022/12/06 12:07:54;;;;;;;;;12.75;12.00;;;;;16.34;69.70;101438.22;146610;647;46010;-76
2022/12/06 12:10:49;;;;;;;;;10.25;8.25;;;;;16.32;69.01;101444.25;146611;699;46012;-76
2022/12/06 12:13:56;;;;;;;;;14.67;9.00;;;;;16.25;69.49;101426.53;146622;579;46021;-75
2022/12/06 12:16:56;;;;;;;;;4.67;4.67;;;;;16.18;70.25;101430.63;146623;577;46012;-76
2022/12/06 12:20:11;;;;;;;;;33.50;28.75;;;;;16.17;70.74;101434.09;146624;681;46020;-76
2022/12/06 12:23:14;;;;;;;;;5.67;4.33;;;;;16.12;69.87;101433.00;146614;599;46016;-75
2022/12/06 12:26:24;;;;;;;;;19.00;17.00;;;;;16.07;71.90;101431.91;146620;617;47012;-78
2022/12/06 12:29:23;;;;;;;;;8.25;8.25;;;;;15.99;72.03;101435.97;146613;707;47014;-76
2022/12/06 12:32:24;;;;;;;;;7.00;6.00;;;;;15.88;70.87;101420.69;146627;563;46034;-76
2022/12/06 12:35:33;;;;;;;;;7.33;5.67;;;;;15.81;71.67;101423.91;146618;578;46013;-75
2022/12/06 12:39:11;;;;;;;;;8.33;6.33;;;;;15.23;73.18;101325.66;146624;586;46021;-76
2022/12/06 12:42:33;;;;;;;;;7.67;7.67;;;;;15.68;73.06;101401.59;146621;627;46016;-77
2022/12/06 12:45:39;;;;;;;;;7.25;6.25;;;;;15.78;71.69;101417.66;146624;567;46010;-76
2022/12/06 12:48:34;;;;;;;;;10.75;10.25;;;;;15.77;72.16;101414.16;146620;624;46016;-75
2022/12/06 12:51:43;;;;;;;;;9.75;8.50;;;;;15.67;72.74;101383.25;146616;566;47010;-75
2022/12/06 12:54:40;;;;;;;;;13.50;11.50;;;;;15.80;71.74;101410.78;146619;570;46016;-75
2022/12/06 12:57:41;;;;;;;;;7.00;7.00;;;;;15.77;71.19;101410.66;146616;651;47011;-76
2022/12/06 13:01:01;;;;;;;;;6.33;5.00;;;;;15.76;72.00;101403.63;146620;601;46024;-76
2022/12/06 13:04:32;;;;;;;;;8.00;7.00;;;;;15.72;72.30;101400.00;146625;633;46012;-76
2022/12/06 13:07:59;;;;;;;;;7.33;6.67;;;;;15.74;72.33;101402.69;146620;566;46014;-76
2022/12/06 13:11:05;;;;;;;;;9.00;9.00;;;;;15.70;71.29;101396.44;146620;588;46020;-74
2022/12/06 13:14:09;;;;;;;;;8.00;7.00;;;;;15.68;71.39;101398.97;146618;598;46013;-76
2022/12/06 13:17:11;;;;;;;;;13.25;11.75;;;;;15.66;71.42;101399.69;146623;632;46010;-74
2022/12/06 13:20:06;;;;;;;;;7.75;7.00;;;;;15.63;70.94;101403.06;146612;628;46015;-76
2022/12/06 13:23:19;;;;;;;;;6.00;6.00;;;;;15.60;71.79;101402.94;146624;587;46020;-75
2022/12/06 13:26:55;;;;;;;;;;;;;;;;;;;;;
2022/12/06 13:30:35;;;;;;;;;6.33;5.67;;;;;13.87;72.05;101126.62;146621;571;46020;-76
2022/12/06 13:33:31;;;;;;;;;12.00;11.00;;;;;15.44;71.43;101409.25;146618;647;46012;-76
2022/12/06 13:36:29;;;;;;;;;12.75;10.25;;;;;15.42;70.84;101403.09;146615;577;46010;-76
2022/12/06 13:40:01;;;;;;;;;8.00;8.00;;;;;12.10;69.59;100831.38;146612;652;46016;-76
2022/12/06 13:42:54;;;;;;;;;9.00;8.00;;;;;15.32;69.91;101398.28;146623;592;46021;-75
2022/12/06 13:45:51;;;;;;;;;6.00;6.00;;;;;15.30;70.96;101401.69;146621;640;46012;-76
2022/12/06 13:49:26;;;;;;;;;3.33;2.00;;;;;15.28;70.90;101399.00;146621;648;46010;-74
2022/12/06 13:53:09;;;;;;;;;6.50;6.00;;;;;13.74;71.29;101122.59;146619;666;46016;-76
2022/12/06 13:56:51;;;;;;;;;3.33;3.33;;;;;13.78;72.15;101121.91;146624;588;46010;-76
2022/12/06 13:59:57;;;;;;;;;6.50;5.00;;;;;15.36;70.95;101386.28;146617;643;46016;-75
2022/12/06 14:02:55;;;;;;;;;4.75;3.00;;;;;15.35;68.93;101387.97;146623;581;46020;-74
2022/12/06 14:06:14;;;;;;;;;6.75;6.00;;;;;13.99;70.94;101154.97;146616;566;46017;-74
2022/12/06 14:09:24;;;;;;;;;6.00;6.00;;;;;15.27;70.44;101393.72;146621;686;46010;-74
2022/12/06 14:12:29;;;;;;;;;8.50;8.00;;;;;15.25;71.34;101381.47;146637;582;46014;-75
2022/12/06 14:15:38;;;;;;;;;;;;;;;;;;;;;
2022/12/06 14:18:35;;;;;;;;;6.25;5.25;;;;;15.32;70.96;101384.34;146639;577;45016;-76
2022/12/06 14:21:56;;;;;;;;;9.50;8.50;;;;;13.70;69.60;101114.56;146644;569;45010;-73
2022/12/06 14:25:21;;;;;;;;;8.33;6.00;;;;;14.93;71.73;101321.75;146643;654;45915;-75
2022/12/06 14:28:21;;;;;;;;;10.50;9.00;;;;;15.21;71.89;101381.28;146646;725;45011;-76
2022/12/06 14:31:44;;;;;;;;;5.75;5.75;;;;;15.23;72.58;101385.75;146645;627;45012;-76
2022/12/06 14:34:50;;;;;;;;;;;;;;;;;;;;;
2022/12/06 14:38:05;;;;;;;;;7.75;5.50;;;;;15.23;72.79;101379.59;146635;624;45016;-77
2022/12/06 14:44:27;;;;;;;;;6.00;4.75;;;;;15.17;72.10;101384.56;146638;587;45012;-75
2022/12/06 14:47:36;;;;;;;;;10.75;9.50;;;;;15.12;72.07;101380.88;146637;709;45020;-71
2022/12/06 14:50:47;;;;;;;;;10.25;7.00;;;;;15.08;72.43;101376.31;146637;679;45035;-73
2022/12/06 14:53:43;;;;;;;;;8.00;7.50;;;;;15.04;72.61;101374.41;146638;607;45020;-73
2022/12/06 14:56:48;;;;;;;;;;;;;;;;;;;;;
2022/12/06 14:59:44;;;;;;;;;8.50;6.50;;;;;15.01;72.88;101383.00;146637;590;45020;-73
2022/12/06 15:02:57;;;;;;;;;6.50;6.50;;;;;15.03;72.65;101376.13;146636;582;45016;-74
2022/12/06 15:06:20;;;;;;;;;11.25;7.75;;;;;15.03;73.02;101373.53;146637;657;45010;-73
2022/12/06 15:09:20;;;;;;;;;11.50;10.00;;;;;15.02;73.64;101377.88;146634;569;45016;-74